createdAt,value
2023-06-30T00:00:23.462Z,17.02
2023-06-30T00:01:23.464Z,16.92
2023-06-30T00:02:23.498Z,16.96
2023-06-30T00:03:23.486Z,17.02
2023-06-30T00:04:23.507Z,17.02
2023-06-30T00:05:23.355Z,17.00
2023-06-30T00:06:23.356Z,16.98
2023-06-30T00:07:23.354Z,16.96
2023-06-30T00:08:23.392Z,16.96
2023-06-30T00:09:23.285Z,16.96
2023-06-30T00:10:23.288Z,16.95
2023-06-30T00:11:23.231Z,16.96
2023-06-30T00:12:23.215Z,16.92
2023-06-30T00:13:23.182Z,16.92
2023-06-30T00:14:23.215Z,16.90
2023-06-30T00:15:23.143Z,16.88
2023-06-30T00:16:23.318Z,16.92
2023-06-30T00:17:23.661Z,16.88
2023-06-30T00:18:23.083Z,16.92
2023-06-30T00:19:23.149Z,16.87
2023-06-30T00:20:23.045Z,16.85
2023-06-30T00:21:23.066Z,16.85
2023-06-30T00:22:23.033Z,16.78
2023-06-30T00:23:22.993Z,16.78
2023-06-30T00:24:22.970Z,16.75
2023-06-30T00:25:22.989Z,16.66
2023-06-30T00:26:22.924Z,16.70
2023-06-30T00:27:23.015Z,16.66
2023-06-30T00:28:22.880Z,16.62
2023-06-30T00:29:22.864Z,16.66
2023-06-30T00:30:22.939Z,16.65
2023-06-30T00:31:22.845Z,16.77
2023-06-30T00:32:22.862Z,16.69
2023-06-30T00:33:22.790Z,16.75
2023-06-30T00:34:22.859Z,16.67
2023-06-30T00:35:22.731Z,16.70
2023-06-30T00:36:22.770Z,16.66
2023-06-30T00:37:22.689Z,16.67
2023-06-30T00:38:22.797Z,16.67
2023-06-30T00:39:22.656Z,16.67
2023-06-30T00:40:22.640Z,16.65
2023-06-30T00:41:22.620Z,16.70
2023-06-30T00:42:22.610Z,16.62
2023-06-30T00:43:22.586Z,16.69
2023-06-30T00:44:22.614Z,16.69
2023-06-30T00:45:22.523Z,16.67
2023-06-30T00:46:22.506Z,16.67
2023-06-30T00:47:22.534Z,16.69
2023-06-30T00:48:22.541Z,16.77
2023-06-30T00:49:22.457Z,16.62
2023-06-30T00:50:22.460Z,16.59
2023-06-30T00:51:22.402Z,16.66
2023-06-30T00:52:22.381Z,16.67
2023-06-30T00:53:22.392Z,16.60
2023-06-30T00:54:22.347Z,16.62
2023-06-30T00:55:22.389Z,16.65
2023-06-30T00:56:22.300Z,16.63
2023-06-30T00:57:22.299Z,16.60
2023-06-30T00:58:22.254Z,16.57
2023-06-30T00:59:22.311Z,16.60
2023-06-30T01:00:22.220Z,16.65
2023-06-30T01:01:22.297Z,16.62
2023-06-30T01:02:22.208Z,16.60
2023-06-30T01:03:22.237Z,16.65
2023-06-30T01:04:22.188Z,16.62
2023-06-30T01:05:22.157Z,16.54
2023-06-30T01:06:22.092Z,16.65
2023-06-30T01:07:22.214Z,16.60
2023-06-30T01:08:22.048Z,16.63
2023-06-30T01:09:22.029Z,16.57
2023-06-30T01:10:22.092Z,16.62
2023-06-30T01:11:21.991Z,16.60
2023-06-30T01:12:22.010Z,16.59
2023-06-30T01:13:21.941Z,16.59
2023-06-30T01:14:21.944Z,16.62
2023-06-30T01:15:21.903Z,16.60
2023-06-30T01:16:21.968Z,16.55
2023-06-30T01:17:21.933Z,16.59
2023-06-30T01:18:21.948Z,16.55
2023-06-30T01:19:21.845Z,16.59
2023-06-30T01:20:21.819Z,16.54
2023-06-30T01:21:21.799Z,16.52
2023-06-30T01:22:21.773Z,16.59
2023-06-30T01:23:21.740Z,16.54
2023-06-30T01:24:21.785Z,16.57
2023-06-30T01:25:21.695Z,16.50
2023-06-30T01:26:21.739Z,16.52
2023-06-30T01:27:21.714Z,16.55
2023-06-30T01:28:21.672Z,16.54
2023-06-30T01:29:21.775Z,16.51
2023-06-30T01:30:21.607Z,16.57
2023-06-30T01:31:21.643Z,16.52
2023-06-30T01:32:21.626Z,16.50
2023-06-30T01:33:21.544Z,16.52
2023-06-30T01:34:21.521Z,16.55
2023-06-30T01:35:21.560Z,16.51
2023-06-30T01:36:21.487Z,16.50
2023-06-30T01:37:21.444Z,16.51
2023-06-30T01:38:21.493Z,16.55
2023-06-30T01:39:21.414Z,16.52
2023-06-30T01:40:21.490Z,16.51
2023-06-30T01:41:21.380Z,16.52
2023-06-30T01:42:21.406Z,16.51
2023-06-30T01:43:21.367Z,16.50
2023-06-30T01:44:21.418Z,16.52
2023-06-30T01:45:21.280Z,16.57
2023-06-30T01:46:21.396Z,16.51
2023-06-30T01:47:21.267Z,16.48
2023-06-30T01:48:21.220Z,16.50
2023-06-30T01:49:21.218Z,16.48
2023-06-30T01:50:21.271Z,16.50
2023-06-30T01:51:21.164Z,16.51
2023-06-30T01:52:21.187Z,16.48
2023-06-30T01:53:21.116Z,16.57
2023-06-30T01:54:21.105Z,16.48
2023-06-30T01:55:21.093Z,16.50
2023-06-30T01:56:21.067Z,16.48
2023-06-30T01:57:21.103Z,16.48
2023-06-30T01:58:21.007Z,16.52
2023-06-30T01:59:28.194Z,16.50
2023-06-30T02:01:25.008Z,16.51
2023-06-30T02:02:24.959Z,16.47
2023-06-30T02:04:28.912Z,16.51
2023-06-30T02:05:28.878Z,16.34
2023-06-30T02:07:32.946Z,16.42
2023-06-30T02:08:32.797Z,16.44
2023-06-30T02:10:36.776Z,16.34
2023-06-30T02:11:36.724Z,16.23
2023-06-30T02:13:41.559Z,16.27
2023-06-30T02:14:41.525Z,16.30
2023-06-30T02:16:45.582Z,16.16
2023-06-30T02:17:45.520Z,16.23
2023-06-30T02:19:49.422Z,16.17
2023-06-30T02:20:49.376Z,16.16
2023-06-30T02:22:53.372Z,16.14
2023-06-30T02:23:53.332Z,16.18
2023-06-30T02:25:46.487Z,16.17
2023-06-30T02:26:46.179Z,16.14
2023-06-30T02:28:50.156Z,16.17
2023-06-30T02:29:50.106Z,16.14
2023-06-30T02:31:54.112Z,16.13
2023-06-30T02:32:54.043Z,16.17
2023-06-30T02:34:58.071Z,16.13
2023-06-30T02:35:57.999Z,16.13
2023-06-30T02:38:01.982Z,16.18
2023-06-30T02:39:01.941Z,16.26
2023-06-30T02:41:06.764Z,16.27
2023-06-30T02:42:06.725Z,16.27
2023-06-30T02:44:10.684Z,16.23
2023-06-30T02:45:10.648Z,16.30
2023-06-30T02:47:14.634Z,16.25
2023-06-30T02:48:14.614Z,16.23
2023-06-30T02:50:19.413Z,16.18
2023-06-30T02:51:19.354Z,16.26
2023-06-30T02:53:23.342Z,16.30
2023-06-30T02:54:23.307Z,16.18
2023-06-30T02:56:27.276Z,16.27
2023-06-30T02:57:27.234Z,16.27
2023-06-30T02:59:31.219Z,16.22
2023-06-30T03:00:31.168Z,16.14
2023-06-30T03:02:35.378Z,16.16
2023-06-30T03:03:35.146Z,16.13
2023-06-30T03:05:28.013Z,16.17
2023-06-30T03:06:27.974Z,16.10
2023-06-30T03:08:31.936Z,16.10
2023-06-30T03:09:31.894Z,16.14
2023-06-30T03:11:35.892Z,16.11
2023-06-30T03:12:35.837Z,16.08
2023-06-30T03:14:40.661Z,16.10
2023-06-30T03:15:40.617Z,16.07
2023-06-30T03:17:44.711Z,16.13
2023-06-30T03:18:44.564Z,16.08
2023-06-30T03:20:48.525Z,16.11
2023-06-30T03:21:48.498Z,16.11
2023-06-30T03:23:52.475Z,16.07
2023-06-30T03:24:52.417Z,16.13
2023-06-30T03:26:56.413Z,15.96
2023-06-30T03:27:56.355Z,16.13
2023-06-30T03:30:00.345Z,16.13
2023-06-30T03:31:00.311Z,16.01
2023-06-30T03:33:04.306Z,16.10
2023-06-30T03:34:04.225Z,16.10
2023-06-30T03:35:57.113Z,16.11
2023-06-30T03:36:57.091Z,16.13
2023-06-30T03:39:01.054Z,16.16
2023-06-30T03:40:01.035Z,16.11
2023-06-30T03:42:05.841Z,16.04
2023-06-30T03:43:05.797Z,16.13
2023-06-30T03:45:09.764Z,16.04
2023-06-30T03:46:09.771Z,16.08
2023-06-30T03:48:13.710Z,16.08
2023-06-30T03:49:13.665Z,15.96
2023-06-30T03:51:17.639Z,16.08
2023-06-30T03:52:17.591Z,16.07
2023-06-30T03:54:21.577Z,15.99
2023-06-30T03:55:21.540Z,15.96
2023-06-30T03:57:25.524Z,15.86
2023-06-30T03:58:25.460Z,15.89
2023-06-30T04:00:29.449Z,15.95
2023-06-30T04:01:29.404Z,15.91
2023-06-30T04:03:33.466Z,15.86
2023-06-30T04:04:33.497Z,15.88
2023-06-30T04:06:37.336Z,15.85
2023-06-30T04:07:37.370Z,15.76
2023-06-30T04:09:41.243Z,15.76
2023-06-30T04:10:41.202Z,15.73
2023-06-30T04:12:45.193Z,15.71
2023-06-30T04:13:45.150Z,15.73
2023-06-30T04:15:38.072Z,15.66
2023-06-30T04:16:38.046Z,15.68
2023-06-30T04:18:41.994Z,15.67
2023-06-30T04:19:41.935Z,15.74
2023-06-30T04:21:45.913Z,15.80
2023-06-30T04:22:45.883Z,15.85
2023-06-30T04:24:49.879Z,15.88
2023-06-30T04:25:49.801Z,15.88
2023-06-30T04:27:53.782Z,15.88
2023-06-30T04:28:53.753Z,15.86
2023-06-30T04:30:57.731Z,15.92
2023-06-30T04:31:57.716Z,15.92
2023-06-30T04:34:01.667Z,15.81
2023-06-30T04:35:01.610Z,15.78
2023-06-30T04:37:06.450Z,15.84
2023-06-30T04:38:06.398Z,15.89
2023-06-30T04:40:10.396Z,15.86
2023-06-30T04:41:10.336Z,15.91
2023-06-30T04:43:14.328Z,15.88
2023-06-30T04:44:14.289Z,15.88
2023-06-30T04:46:07.280Z,15.92
2023-06-30T04:47:07.162Z,15.98
2023-06-30T04:49:11.132Z,16.04
2023-06-30T04:50:11.089Z,15.88
2023-06-30T04:52:15.071Z,15.84
2023-06-30T04:53:15.012Z,15.74
2023-06-30T04:54:15.015Z,15.77
2023-06-30T04:55:14.975Z,15.81
2023-06-30T04:56:14.983Z,15.80
2023-06-30T04:57:14.949Z,15.77
2023-06-30T04:58:14.918Z,15.80
2023-06-30T04:59:14.907Z,15.86
2023-06-30T05:00:14.892Z,15.92
2023-06-30T05:01:14.899Z,15.88
2023-06-30T05:02:14.830Z,15.92
2023-06-30T05:03:14.848Z,15.86
2023-06-30T05:04:14.798Z,15.98
2023-06-30T05:05:14.758Z,15.98
2023-06-30T05:06:14.760Z,15.91
2023-06-30T05:07:14.760Z,15.98
2023-06-30T05:08:14.712Z,15.98
2023-06-30T05:09:14.685Z,15.99
2023-06-30T05:10:14.672Z,16.04
2023-06-30T05:11:14.653Z,15.92
2023-06-30T05:12:14.624Z,16.04
2023-06-30T05:13:14.588Z,16.06
2023-06-30T05:14:14.577Z,15.99
2023-06-30T05:15:14.578Z,16.06
2023-06-30T05:16:14.579Z,16.03
2023-06-30T05:17:14.580Z,16.04
2023-06-30T05:18:14.538Z,15.98
2023-06-30T05:19:14.472Z,16.06
2023-06-30T05:20:14.448Z,16.01
2023-06-30T05:21:14.422Z,16.08
2023-06-30T05:22:14.400Z,15.96
2023-06-30T05:23:14.391Z,15.96
2023-06-30T05:24:14.363Z,16.04
2023-06-30T05:25:14.332Z,15.99
2023-06-30T05:26:14.313Z,15.98
2023-06-30T05:27:14.341Z,16.01
2023-06-30T05:28:14.286Z,16.13
2023-06-30T05:29:15.638Z,16.10
2023-06-30T05:30:14.264Z,16.13
2023-06-30T05:31:14.250Z,16.03
2023-06-30T05:32:14.292Z,16.11
2023-06-30T05:33:14.156Z,16.14
2023-06-30T05:34:14.228Z,16.13
2023-06-30T05:35:14.119Z,16.11
2023-06-30T05:36:14.198Z,16.17
2023-06-30T05:37:14.128Z,16.16
2023-06-30T05:38:14.141Z,16.10
2023-06-30T05:39:14.041Z,16.16
2023-06-30T05:40:14.021Z,16.18
2023-06-30T05:41:13.994Z,16.14
2023-06-30T05:42:13.979Z,16.14
2023-06-30T05:43:13.948Z,16.13
2023-06-30T05:44:14.094Z,16.14
2023-06-30T05:45:13.914Z,16.26
2023-06-30T05:46:13.998Z,16.29
2023-06-30T05:47:13.867Z,16.41
2023-06-30T05:48:13.857Z,16.33
2023-06-30T05:49:13.822Z,16.40
2023-06-30T05:50:13.907Z,16.37
2023-06-30T05:51:13.780Z,16.34
2023-06-30T05:52:13.809Z,16.44
2023-06-30T05:53:13.733Z,16.42
2023-06-30T05:54:13.738Z,16.41
2023-06-30T05:55:13.748Z,16.47
2023-06-30T05:56:13.669Z,16.55
2023-06-30T05:57:13.756Z,16.57
2023-06-30T05:58:13.631Z,16.69
2023-06-30T05:59:13.604Z,16.69
2023-06-30T06:00:13.594Z,16.70
2023-06-30T06:01:13.666Z,16.67
2023-06-30T06:02:13.586Z,16.69
2023-06-30T06:03:13.866Z,16.60
2023-06-30T06:04:13.623Z,16.70
2023-06-30T06:05:13.734Z,16.57
2023-06-30T06:06:13.500Z,16.65
2023-06-30T06:07:13.471Z,16.63
2023-06-30T06:08:13.535Z,16.59
2023-06-30T06:09:13.417Z,16.62
2023-06-30T06:10:13.424Z,16.69
2023-06-30T06:11:13.386Z,16.66
2023-06-30T06:12:13.444Z,16.55
2023-06-30T06:13:13.370Z,16.60
2023-06-30T06:14:13.366Z,16.55
2023-06-30T06:15:13.270Z,16.60
2023-06-30T06:16:13.326Z,16.63
2023-06-30T06:17:13.226Z,16.60
2023-06-30T06:18:13.299Z,16.72
2023-06-30T06:19:13.218Z,16.77
2023-06-30T06:20:13.190Z,16.81
2023-06-30T06:21:13.163Z,16.75
2023-06-30T06:22:13.130Z,16.78
2023-06-30T06:23:13.106Z,16.80
2023-06-30T06:24:13.116Z,16.80
2023-06-30T06:25:13.075Z,16.85
2023-06-30T06:26:13.144Z,16.87
2023-06-30T06:27:13.028Z,16.72
2023-06-30T06:28:13.106Z,16.66
2023-06-30T06:29:13.050Z,16.69
2023-06-30T06:30:12.990Z,16.75
2023-06-30T06:31:13.014Z,16.78
2023-06-30T06:32:12.914Z,16.82
2023-06-30T06:33:12.989Z,16.85
2023-06-30T06:34:12.896Z,16.87
2023-06-30T06:35:12.899Z,16.92
2023-06-30T06:36:12.839Z,17.00
2023-06-30T06:37:12.911Z,17.00
2023-06-30T06:38:12.791Z,17.17
2023-06-30T06:39:12.843Z,17.17
2023-06-30T06:40:12.757Z,17.18
2023-06-30T06:41:12.828Z,17.27
2023-06-30T06:42:12.703Z,17.12
2023-06-30T06:43:13.766Z,17.18
2023-06-30T06:44:12.677Z,17.17
2023-06-30T06:45:12.665Z,17.25
2023-06-30T06:46:12.653Z,17.21
2023-06-30T06:47:12.754Z,17.21
2023-06-30T06:48:12.586Z,17.22
2023-06-30T06:49:12.685Z,17.22
2023-06-30T06:50:12.545Z,17.21
2023-06-30T06:51:12.527Z,17.17
2023-06-30T06:52:12.504Z,17.12
2023-06-30T06:53:12.528Z,17.21
2023-06-30T06:54:12.578Z,17.25
2023-06-30T06:55:12.535Z,17.28
2023-06-30T06:56:12.427Z,17.36
2023-06-30T06:57:12.408Z,17.35
2023-06-30T06:58:12.613Z,17.30
2023-06-30T06:59:12.463Z,17.43
2023-06-30T07:00:12.336Z,17.45
2023-06-30T07:01:12.358Z,17.42
2023-06-30T07:02:12.386Z,17.43
2023-06-30T07:03:12.294Z,17.45
2023-06-30T07:04:12.368Z,17.45
2023-06-30T07:05:12.236Z,17.49
2023-06-30T07:06:12.306Z,17.54
2023-06-30T07:07:12.272Z,17.54
2023-06-30T07:08:12.207Z,17.51
2023-06-30T07:09:12.176Z,17.63
2023-06-30T07:10:12.229Z,17.66
2023-06-30T07:11:12.152Z,17.58
2023-06-30T07:12:12.285Z,17.60
2023-06-30T07:13:12.062Z,17.62
2023-06-30T07:14:12.145Z,17.58
2023-06-30T07:15:12.023Z,17.58
2023-06-30T07:16:12.125Z,17.53
2023-06-30T07:17:11.978Z,17.58
2023-06-30T07:18:12.062Z,17.51
2023-06-30T07:19:11.953Z,17.51
2023-06-30T07:20:11.934Z,17.51
2023-06-30T07:21:11.904Z,17.54
2023-06-30T07:22:11.905Z,17.55
2023-06-30T07:23:11.860Z,17.60
2023-06-30T07:24:11.926Z,17.65
2023-06-30T07:25:11.813Z,17.76
2023-06-30T07:26:11.790Z,17.81
2023-06-30T07:27:11.781Z,17.73
2023-06-30T07:28:11.875Z,17.71
2023-06-30T07:29:11.738Z,17.77
2023-06-30T07:30:11.762Z,17.76
2023-06-30T07:31:11.753Z,17.77
2023-06-30T07:32:11.682Z,17.73
2023-06-30T07:33:11.731Z,17.79
2023-06-30T07:34:11.640Z,17.92
2023-06-30T07:35:11.683Z,17.92
2023-06-30T07:36:11.584Z,17.89
2023-06-30T07:37:11.625Z,17.83
2023-06-30T07:38:11.544Z,17.81
2023-06-30T07:39:12.662Z,17.81
2023-06-30T07:40:16.548Z,17.84
2023-06-30T07:41:12.586Z,17.84
2023-06-30T07:42:11.459Z,17.98
2023-06-30T07:43:11.459Z,17.99
2023-06-30T07:44:11.427Z,18.01
2023-06-30T07:45:11.456Z,17.94
2023-06-30T07:46:11.418Z,18.07
2023-06-30T07:47:11.475Z,18.02
2023-06-30T07:48:11.469Z,18.09
2023-06-30T07:49:11.318Z,18.10
2023-06-30T07:50:11.295Z,18.14
2023-06-30T07:51:11.390Z,18.13
2023-06-30T07:52:11.256Z,18.11
2023-06-30T07:53:11.314Z,18.10
2023-06-30T07:54:11.225Z,18.25
2023-06-30T07:55:11.209Z,18.29
2023-06-30T07:56:11.189Z,18.19
2023-06-30T07:57:11.225Z,18.28
2023-06-30T07:58:11.145Z,18.25
2023-06-30T07:59:11.252Z,18.21
2023-06-30T08:00:18.480Z,18.35
2023-06-30T08:02:15.219Z,18.34
2023-06-30T08:03:15.275Z,18.36
2023-06-30T08:05:19.327Z,18.38
2023-06-30T08:06:19.269Z,18.42
2023-06-30T08:08:23.236Z,18.47
2023-06-30T08:09:23.167Z,18.41
2023-06-30T08:11:27.247Z,18.53
2023-06-30T08:12:27.175Z,18.56
2023-06-30T08:14:31.273Z,18.65
2023-06-30T08:15:31.202Z,18.66
2023-06-30T08:17:51.335Z,18.62
2023-06-30T08:18:35.291Z,18.71
2023-06-30T08:20:39.304Z,18.65
2023-06-30T08:21:39.241Z,18.65
2023-06-30T08:23:43.283Z,18.83
2023-06-30T08:24:43.239Z,18.90
2023-06-30T08:26:47.328Z,18.99
2023-06-30T08:27:47.256Z,19.01
2023-06-30T08:29:51.362Z,19.15
2023-06-30T08:30:51.300Z,19.10
2023-06-30T08:32:55.964Z,19.17
2023-06-30T08:33:55.298Z,19.24
2023-06-30T08:35:48.313Z,19.30
2023-06-30T08:36:48.245Z,19.28
2023-06-30T08:38:52.336Z,19.52
2023-06-30T08:39:52.255Z,19.68
2023-06-30T08:41:56.348Z,20.04
2023-06-30T08:42:56.309Z,20.17
2023-06-30T08:45:00.379Z,20.46
2023-06-30T08:46:00.286Z,20.57
2023-06-30T08:48:04.428Z,20.51
2023-06-30T08:49:04.316Z,20.71
2023-06-30T08:51:08.406Z,20.90
2023-06-30T08:52:08.321Z,21.06
2023-06-30T08:54:12.448Z,21.19
2023-06-30T08:55:12.339Z,21.30
2023-06-30T08:57:16.480Z,21.30
2023-06-30T08:58:25.225Z,21.37
2023-06-30T09:00:20.516Z,21.40
2023-06-30T09:01:20.519Z,21.31
2023-06-30T09:03:24.535Z,21.18
2023-06-30T09:04:24.417Z,21.12
2023-06-30T09:06:28.485Z,21.19
2023-06-30T09:07:28.446Z,21.19
2023-06-30T09:09:32.493Z,21.26
2023-06-30T09:10:32.429Z,21.18
2023-06-30T09:12:36.526Z,21.27
2023-06-30T09:13:36.452Z,21.64
2023-06-30T09:15:29.445Z,22.04
2023-06-30T09:16:29.415Z,22.19
2023-06-30T09:18:33.508Z,22.05
2023-06-30T09:19:33.409Z,22.08
2023-06-30T09:21:37.508Z,22.26
2023-06-30T09:22:53.174Z,22.09
2023-06-30T09:24:42.020Z,22.02
2023-06-30T09:25:42.027Z,21.91
2023-06-30T09:27:46.046Z,21.82
2023-06-30T09:28:45.992Z,21.96
2023-06-30T09:30:50.071Z,22.04
2023-06-30T09:31:50.081Z,22.27
2023-06-30T09:33:54.083Z,22.51
2023-06-30T09:34:53.998Z,22.61
2023-06-30T09:36:58.095Z,22.69
2023-06-30T09:37:58.023Z,22.97
2023-06-30T09:40:02.109Z,22.89
2023-06-30T09:41:02.020Z,23.00
2023-06-30T09:43:06.126Z,23.14
2023-06-30T09:44:06.057Z,23.16
2023-06-30T09:45:59.192Z,23.37
2023-06-30T09:46:59.011Z,23.26
2023-06-30T09:49:03.097Z,23.29
2023-06-30T09:50:03.114Z,23.25
2023-06-30T09:52:07.110Z,22.89
2023-06-30T09:53:07.045Z,22.82
2023-06-30T09:55:11.110Z,22.78
2023-06-30T09:56:11.084Z,22.96
2023-06-30T09:58:15.136Z,23.31
2023-06-30T09:59:15.078Z,23.56
2023-06-30T10:01:19.190Z,23.79
2023-06-30T10:02:19.120Z,23.62
2023-06-30T10:04:23.169Z,23.38
2023-06-30T10:05:23.089Z,23.25
2023-06-30T10:07:27.226Z,23.47
2023-06-30T10:08:27.113Z,23.69
2023-06-30T10:10:31.206Z,24.06
2023-06-30T10:11:31.138Z,23.90
2023-06-30T10:13:35.209Z,23.77
2023-06-30T10:14:35.137Z,23.75
2023-06-30T10:16:39.221Z,24.14
2023-06-30T10:17:39.331Z,24.33
2023-06-30T10:19:43.247Z,24.19
2023-06-30T10:20:49.182Z,24.09
2023-06-30T10:22:47.408Z,23.72
2023-06-30T10:23:47.241Z,23.57
2023-06-30T10:24:47.275Z,23.82
2023-06-30T10:25:47.417Z,23.86
2023-06-30T10:26:47.296Z,24.02
2023-06-30T10:27:47.168Z,24.00
2023-06-30T10:28:47.249Z,23.59
2023-06-30T10:29:47.144Z,23.47
2023-06-30T10:30:47.113Z,23.63
2023-06-30T10:31:47.136Z,23.79
2023-06-30T10:32:47.250Z,23.84
2023-06-30T10:33:47.136Z,24.00
2023-06-30T10:34:47.148Z,24.24
2023-06-30T10:35:47.330Z,24.49
2023-06-30T10:36:47.025Z,24.61
2023-06-30T10:37:47.063Z,24.75
2023-06-30T10:38:46.994Z,24.80
2023-06-30T10:39:47.088Z,24.82
2023-06-30T10:40:46.950Z,25.07
2023-06-30T10:41:46.951Z,25.08
2023-06-30T10:42:46.916Z,24.90
2023-06-30T10:43:47.008Z,25.02
2023-06-30T10:44:46.906Z,24.99
2023-06-30T10:45:47.023Z,24.99
2023-06-30T10:46:46.909Z,24.92
2023-06-30T10:47:46.963Z,24.94
2023-06-30T10:48:46.849Z,24.89
2023-06-30T10:49:46.844Z,24.66
2023-06-30T10:50:46.790Z,24.51
2023-06-30T10:51:46.886Z,24.45
2023-06-30T10:52:46.767Z,24.27
2023-06-30T10:53:46.774Z,23.90
2023-06-30T10:54:46.849Z,23.82
2023-06-30T10:55:47.255Z,23.87
2023-06-30T10:56:46.807Z,23.86
2023-06-30T10:57:46.696Z,23.89
2023-06-30T10:58:46.701Z,23.84
2023-06-30T10:59:46.661Z,24.00
2023-06-30T11:00:46.654Z,24.08
2023-06-30T11:01:46.728Z,24.05
2023-06-30T11:02:46.720Z,23.97
2023-06-30T11:03:46.756Z,23.92
2023-06-30T11:04:46.713Z,23.87
2023-06-30T11:05:46.862Z,23.93
2023-06-30T11:06:46.564Z,23.99
2023-06-30T11:07:46.577Z,24.02
2023-06-30T11:08:46.539Z,23.93
2023-06-30T11:09:46.576Z,24.23
2023-06-30T11:10:46.480Z,24.53
2023-06-30T11:11:46.489Z,24.84
2023-06-30T11:12:46.447Z,25.31
2023-06-30T11:13:46.516Z,25.64
2023-06-30T11:14:46.416Z,25.75
2023-06-30T11:15:47.340Z,25.78
2023-06-30T11:16:46.404Z,25.23
2023-06-30T11:17:46.514Z,24.75
2023-06-30T11:18:46.483Z,24.75
2023-06-30T11:19:46.513Z,24.71
2023-06-30T11:20:46.339Z,24.67
2023-06-30T11:21:46.356Z,24.63
2023-06-30T11:22:46.307Z,24.64
2023-06-30T11:23:46.383Z,24.56
2023-06-30T11:24:46.262Z,24.66
2023-06-30T11:25:46.285Z,24.70
2023-06-30T11:26:46.234Z,24.61
2023-06-30T11:27:46.313Z,24.53
2023-06-30T11:28:46.238Z,24.53
2023-06-30T11:29:46.245Z,24.61
2023-06-30T11:30:46.187Z,24.66
2023-06-30T11:31:46.219Z,24.59
2023-06-30T11:32:46.156Z,24.31
2023-06-30T11:33:46.252Z,23.87
2023-06-30T11:34:46.112Z,23.60
2023-06-30T11:35:46.267Z,23.35
2023-06-30T11:36:46.168Z,23.59
2023-06-30T11:37:46.064Z,23.92
2023-06-30T11:38:46.182Z,24.27
2023-06-30T11:39:46.037Z,24.80
2023-06-30T11:40:46.091Z,25.19
2023-06-30T11:41:46.003Z,25.42
2023-06-30T11:42:46.096Z,25.07
2023-06-30T11:43:45.992Z,24.55
2023-06-30T11:44:46.012Z,24.39
2023-06-30T11:45:46.206Z,24.09
2023-06-30T11:46:46.059Z,24.02
2023-06-30T11:47:45.964Z,23.86
2023-06-30T11:48:45.976Z,24.11
2023-06-30T11:49:45.915Z,24.46
2023-06-30T11:50:47.188Z,24.66
2023-06-30T11:51:45.855Z,24.66
2023-06-30T11:52:45.858Z,24.45
2023-06-30T11:53:45.842Z,24.29
2023-06-30T11:54:45.876Z,24.29
2023-06-30T11:55:46.177Z,24.31
2023-06-30T11:56:45.832Z,24.41
2023-06-30T11:57:45.783Z,24.52
2023-06-30T11:58:45.751Z,24.56
2023-06-30T11:59:45.736Z,24.66
2023-06-30T12:00:46.213Z,24.66
2023-06-30T12:01:45.698Z,24.68
2023-06-30T12:02:48.492Z,24.64
2023-06-30T12:03:46.080Z,24.66
2023-06-30T12:04:45.806Z,24.80
2023-06-30T12:05:46.027Z,24.80
2023-06-30T12:06:45.643Z,24.75
2023-06-30T12:07:45.676Z,24.82
2023-06-30T12:08:45.603Z,24.83
2023-06-30T12:09:45.688Z,24.98
2023-06-30T12:10:45.887Z,24.89
2023-06-30T12:11:45.593Z,25.08
2023-06-30T12:12:45.529Z,25.31
2023-06-30T12:13:45.607Z,25.46
2023-06-30T12:14:45.502Z,25.24
2023-06-30T12:15:45.742Z,25.01
2023-06-30T12:16:46.396Z,24.93
2023-06-30T12:17:45.547Z,24.94
2023-06-30T12:18:45.470Z,24.99
2023-06-30T12:19:45.451Z,25.11
2023-06-30T12:20:45.423Z,25.53
2023-06-30T12:21:45.416Z,25.78
2023-06-30T12:22:45.381Z,25.97
2023-06-30T12:23:45.478Z,26.32
2023-06-30T12:24:45.356Z,26.39
2023-06-30T12:25:45.722Z,26.39
2023-06-30T12:26:45.323Z,26.39
2023-06-30T12:27:45.412Z,26.50
2023-06-30T12:28:45.384Z,26.28
2023-06-30T12:29:45.319Z,25.56
2023-06-30T12:30:45.589Z,25.20
2023-06-30T12:31:45.352Z,25.16
2023-06-30T12:32:45.351Z,25.22
2023-06-30T12:33:45.253Z,25.14
2023-06-30T12:34:45.279Z,25.07
2023-06-30T12:35:45.421Z,25.35
2023-06-30T12:36:45.262Z,25.64
2023-06-30T12:37:45.178Z,26.16
2023-06-30T12:38:45.295Z,26.46
2023-06-30T12:39:45.184Z,26.75
2023-06-30T12:40:45.399Z,26.98
2023-06-30T12:41:45.120Z,27.16
2023-06-30T12:42:45.204Z,27.06
2023-06-30T12:43:45.442Z,27.09
2023-06-30T12:44:45.065Z,27.38
2023-06-30T12:45:45.125Z,27.42
2023-06-30T12:46:45.344Z,27.06
2023-06-30T12:47:45.189Z,26.49
2023-06-30T12:48:45.036Z,25.83
2023-06-30T12:49:44.996Z,25.30
2023-06-30T12:50:45.312Z,25.23
2023-06-30T12:51:44.969Z,25.49
2023-06-30T12:52:44.994Z,25.79
2023-06-30T12:53:44.951Z,25.91
2023-06-30T12:54:44.968Z,26.03
2023-06-30T12:55:44.923Z,26.09
2023-06-30T12:56:44.999Z,26.16
2023-06-30T12:57:44.884Z,26.27
2023-06-30T12:58:44.905Z,25.98
2023-06-30T12:59:44.860Z,26.13
2023-06-30T13:00:45.084Z,26.36
2023-06-30T13:01:44.985Z,26.27
2023-06-30T13:02:44.915Z,26.21
2023-06-30T13:03:44.914Z,26.29
2023-06-30T13:04:44.788Z,26.44
2023-06-30T13:05:44.871Z,26.65
2023-06-30T13:06:44.862Z,26.76
2023-06-30T13:07:44.764Z,26.75
2023-06-30T13:08:44.774Z,26.76
2023-06-30T13:09:44.714Z,26.93
2023-06-30T13:10:45.170Z,26.93
2023-06-30T13:11:44.689Z,27.01
2023-06-30T13:12:44.709Z,27.24
2023-06-30T13:13:44.669Z,27.15
2023-06-30T13:14:44.711Z,26.78
2023-06-30T13:15:45.065Z,26.73
2023-06-30T13:16:44.802Z,26.78
2023-06-30T13:17:44.743Z,26.66
2023-06-30T13:18:44.601Z,26.68
2023-06-30T13:19:44.662Z,26.39
2023-06-30T13:20:44.588Z,26.28
2023-06-30T13:21:44.662Z,26.32
2023-06-30T13:22:56.272Z,26.31
2023-06-30T13:23:44.536Z,26.35
2023-06-30T13:24:44.551Z,26.29
2023-06-30T13:25:45.098Z,26.03
2023-06-30T13:26:44.479Z,26.04
2023-06-30T13:27:44.505Z,26.06
2023-06-30T13:28:44.464Z,26.36
2023-06-30T13:29:44.453Z,26.56
2023-06-30T13:30:44.772Z,26.79
2023-06-30T13:31:44.442Z,26.88
2023-06-30T13:32:44.487Z,27.02
2023-06-30T13:33:44.422Z,27.12
2023-06-30T13:34:44.457Z,27.15
2023-06-30T13:35:44.558Z,27.15
2023-06-30T13:36:44.373Z,27.11
2023-06-30T13:37:44.380Z,27.02
2023-06-30T13:38:44.423Z,27.11
2023-06-30T13:39:44.405Z,27.06
2023-06-30T13:40:44.450Z,26.76
2023-06-30T13:41:44.278Z,26.36
2023-06-30T13:42:44.337Z,26.21
2023-06-30T13:43:44.278Z,25.86
2023-06-30T13:44:44.323Z,25.67
2023-06-30T13:45:44.556Z,25.64
2023-06-30T13:46:44.211Z,25.71
2023-06-30T13:47:44.256Z,25.91
2023-06-30T13:48:44.246Z,25.98
2023-06-30T13:49:44.163Z,26.19
2023-06-30T13:50:44.316Z,26.32
2023-06-30T13:51:44.155Z,26.34
2023-06-30T13:52:44.136Z,26.35
2023-06-30T13:53:44.195Z,26.41
2023-06-30T13:54:44.115Z,26.06
2023-06-30T13:55:44.632Z,26.06
2023-06-30T13:56:44.269Z,25.93
2023-06-30T13:57:44.111Z,25.90
2023-06-30T13:58:44.069Z,25.91
2023-06-30T13:59:44.159Z,25.97
2023-06-30T14:00:51.350Z,26.11
2023-06-30T14:02:48.232Z,26.41
2023-06-30T14:03:48.171Z,26.53
2023-06-30T14:05:41.141Z,26.88
2023-06-30T14:06:41.041Z,26.69
2023-06-30T14:08:45.131Z,26.31
2023-06-30T14:09:45.052Z,26.13
2023-06-30T14:11:49.149Z,25.48
2023-06-30T14:12:49.082Z,25.09
2023-06-30T14:14:53.156Z,24.97
2023-06-30T14:15:53.104Z,25.20
2023-06-30T14:17:57.213Z,25.27
2023-06-30T14:18:57.117Z,25.59
2023-06-30T14:21:01.149Z,25.72
2023-06-30T14:22:01.112Z,25.67
2023-06-30T14:24:05.196Z,25.79
2023-06-30T14:25:05.129Z,26.11
2023-06-30T14:27:09.211Z,26.68
2023-06-30T14:28:09.150Z,26.79
2023-06-30T14:30:13.241Z,26.66
2023-06-30T14:31:13.192Z,26.38
2023-06-30T14:33:17.254Z,26.21
2023-06-30T14:34:17.196Z,26.11
2023-06-30T14:36:21.260Z,25.82
2023-06-30T14:37:21.190Z,25.97
2023-06-30T14:39:25.284Z,25.93
2023-06-30T14:40:25.212Z,25.79
2023-06-30T14:42:32.536Z,26.19
2023-06-30T14:43:29.226Z,26.13
2023-06-30T14:45:22.248Z,26.29
2023-06-30T14:46:22.256Z,26.35
2023-06-30T14:48:26.263Z,26.42
2023-06-30T14:49:26.207Z,26.56
2023-06-30T14:51:30.255Z,26.84
2023-06-30T14:52:30.216Z,26.84
2023-06-30T14:54:34.309Z,26.79
2023-06-30T14:55:34.233Z,26.66
2023-06-30T14:57:38.305Z,26.57
2023-06-30T14:58:38.255Z,26.46
2023-06-30T15:00:42.338Z,26.16
2023-06-30T15:01:42.287Z,25.91
2023-06-30T15:03:46.407Z,25.67